Time;durP1;ratioP1;P1;durP2;ratioP2;P2;SDS_P1;SDS_P2;PMS_P1;PMS_P2;Temp;Humidity;BMP_temperature;BMP_pressure;BME280_temperature;BME280_humidity;BME280_pressure;Samples;Min_cycle;Max_cycle;Signal;HPM_P1;HPM_P2
2022/03/23 00:00:22;;;;;;;57.22;15.60;;;;;;;;;;5064082;28;20025;-76
2022/03/23 00:02:48;;;;;;;54.50;15.40;;;;;;;;;;5054755;28;20032;-76
2022/03/23 00:05:13;;;;;;;56.85;15.00;;;;;;;;;;5054499;28;20044;-76
2022/03/23 00:07:39;;;;;;;48.85;15.48;;;;;;;;;;5037038;28;20043;-76
2022/03/23 00:10:05;;;;;;;62.85;18.35;;;;;;;;;;5054631;28;20033;-78
2022/03/23 00:12:31;;;;;;;62.53;17.23;;;;;;;;;;5054436;28;20036;-76
2022/03/23 00:14:57;;;;;;;55.83;18.17;;;;;;;;;;5054740;28;20037;-76
2022/03/23 00:17:22;;;;;;;52.55;19.05;;;;;;;;;;5054088;28;20087;-76
2022/03/23 00:19:48;;;;;;;60.75;20.25;;;;;;;;;;5057681;28;20061;-74
2022/03/23 00:22:14;;;;;;;57.13;18.60;;;;;;;;;;5061045;28;20117;-76
2022/03/23 00:24:40;;;;;;;55.67;19.75;;;;;;;;;;5054388;28;20075;-76
2022/03/23 00:27:06;;;;;;;51.67;18.00;;;;;;;;;;5054260;28;20021;-76
2022/03/23 00:29:31;;;;;;;54.78;17.85;;;;;;;;;;5036634;28;20025;-76
2022/03/23 00:31:57;;;;;;;59.63;18.65;;;;;;;;;;5054322;28;20389;-76
2022/03/23 00:34:22;;;;;;;62.80;19.35;;;;;;;;;;5054833;28;20082;-76
2022/03/23 00:36:48;;;;;;;62.30;22.23;;;;;;;;;;5036041;28;20068;-76
2022/03/23 00:39:13;;;;;;;73.05;22.33;;;;;;;;;;5036741;28;20120;-77
2022/03/23 00:41:39;;;;;;;74.05;24.48;;;;;;;;;;5044031;28;20021;-75
2022/03/23 00:44:04;;;;;;;73.28;24.67;;;;;;;;;;5054538;28;20417;-76
2022/03/23 00:46:30;;;;;;;60.92;21.45;;;;;;;;;;5053982;28;20029;-76
2022/03/23 00:48:56;;;;;;;65.72;19.58;;;;;;;;;;5054189;28;20039;-76
2022/03/23 00:51:22;;;;;;;55.67;17.77;;;;;;;;;;5053689;28;20371;-76
2022/03/23 00:53:47;;;;;;;55.55;17.25;;;;;;;;;;5036113;28;20029;-76
2022/03/23 00:56:13;;;;;;;48.85;16.60;;;;;;;;;;5053959;28;20064;-76
2022/03/23 00:58:38;;;;;;;48.80;15.60;;;;;;;;;;5054147;28;20090;-76
2022/03/23 01:01:04;;;;;;;59.92;15.32;;;;;;;;;;5055789;28;20029;-77
2022/03/23 01:03:30;;;;;;;55.05;14.70;;;;;;;;;;5054496;28;20412;-76
2022/03/23 01:05:55;;;;;;;52.72;14.60;;;;;;;;;;5053794;28;20037;-76
2022/03/23 01:08:21;;;;;;;39.97;14.80;;;;;;;;;;5036258;28;20082;-76
2022/03/23 01:10:47;;;;;;;41.30;13.65;;;;;;;;;;5054328;28;20115;-76
2022/03/23 01:13:13;;;;;;;51.58;14.98;;;;;;;;;;5036188;28;20025;-76
2022/03/23 01:15:38;;;;;;;74.57;22.85;;;;;;;;;;5054293;28;20096;-76
2022/03/23 01:18:04;;;;;;;53.55;19.38;;;;;;;;;;5053958;28;20037;-77
2022/03/23 01:20:30;;;;;;;58.13;18.67;;;;;;;;;;5054086;28;20021;-77
2022/03/23 01:22:56;;;;;;;55.00;17.80;;;;;;;;;;5044620;28;20033;-76
2022/03/23 01:25:21;;;;;;;48.55;17.67;;;;;;;;;;5037194;28;20454;-76
2022/03/23 01:27:47;;;;;;;46.08;17.25;;;;;;;;;;5053834;28;20028;-76
2022/03/23 01:30:13;;;;;;;47.53;16.30;;;;;;;;;;5057175;28;20021;-75
2022/03/23 01:32:39;;;;;;;52.28;16.92;;;;;;;;;;5057852;28;20629;-76
2022/03/23 01:35:06;;;;;;;40.70;16.88;;;;;;;;;;5023154;28;20458;-76
2022/03/23 01:37:32;;;;;;;50.33;17.88;;;;;;;;;;5057588;28;20032;-75
2022/03/23 01:39:57;;;;;;;47.28;17.45;;;;;;;;;;5057746;28;20033;-76
2022/03/23 01:42:23;;;;;;;53.83;18.02;;;;;;;;;;5057876;28;20413;-75
2022/03/23 01:44:48;;;;;;;60.30;18.02;;;;;;;;;;5064898;28;20059;-76
2022/03/23 01:47:15;;;;;;;55.55;18.23;;;;;;;;;;5057248;28;20040;-76
2022/03/23 01:49:43;;;;;;;55.85;19.00;;;;;;;;;;5057080;28;20033;-76
2022/03/23 01:52:10;;;;;;;54.30;19.10;;;;;;;;;;5039713;28;20543;-76
2022/03/23 01:54:36;;;;;;;53.97;18.50;;;;;;;;;;5039669;28;20081;-76
2022/03/23 01:57:03;;;;;;;60.83;19.98;;;;;;;;;;5039479;28;20056;-75
2022/03/23 01:59:28;;;;;;;51.92;20.20;;;;;;;;;;5057122;28;20116;-76
2022/03/23 02:01:54;;;;;;;50.60;19.52;;;;;;;;;;5039396;28;20202;-76
2022/03/23 02:04:19;;;;;;;59.40;19.58;;;;;;;;;;5060469;28;20111;-77
2022/03/23 02:06:45;;;;;;;55.85;20.17;;;;;;;;;;5039584;28;20034;-75
2022/03/23 02:09:10;;;;;;;70.32;21.27;;;;;;;;;;5039109;28;20040;-75
2022/03/23 02:11:37;;;;;;;73.47;22.08;;;;;;;;;;5039029;28;20476;-75
2022/03/23 02:14:03;;;;;;;65.78;21.45;;;;;;;;;;5039114;28;20078;-76
2022/03/23 02:16:28;;;;;;;61.90;20.33;;;;;;;;;;5038987;28;20029;-76
2022/03/23 02:18:54;;;;;;;66.78;20.75;;;;;;;;;;5056453;28;20421;-76
2022/03/23 02:21:19;;;;;;;75.00;21.27;;;;;;;;;;5057151;28;20442;-76
2022/03/23 02:23:44;;;;;;;60.58;19.90;;;;;;;;;;5056679;28;20500;-75
2022/03/23 02:26:10;;;;;;;58.50;20.00;;;;;;;;;;5064672;28;20108;-75
2022/03/23 02:28:36;;;;;;;57.30;20.27;;;;;;;;;;5022262;28;20032;-75
2022/03/23 02:31:01;;;;;;;61.25;20.95;;;;;;;;;;5039074;28;20040;-76
2022/03/23 02:33:27;;;;;;;56.72;18.33;;;;;;;;;;5056131;28;20415;-76
2022/03/23 02:35:53;;;;;;;55.42;20.75;;;;;;;;;;5038655;28;20032;-76
2022/03/23 02:38:18;;;;;;;66.30;23.38;;;;;;;;;;5056313;28;20027;-76
2022/03/23 02:40:45;;;;;;;71.05;24.08;;;;;;;;;;5038197;28;20029;-75
2022/03/23 02:43:10;;;;;;;57.13;21.20;;;;;;;;;;5038828;28;20433;-75
2022/03/23 02:45:36;;;;;;;70.88;23.50;;;;;;;;;;5060548;28;20036;-75
2022/03/23 02:48:03;;;;;;;75.60;22.20;;;;;;;;;;5058434;28;20040;-75
2022/03/23 02:50:29;;;;;;;55.60;20.48;;;;;;;;;;5056083;28;20029;-76
2022/03/23 03:04:14;;;;;;;51.80;18.52;;;;;;;;;;5055226;28;20473;-76
2022/03/23 03:06:40;;;;;;;53.50;19.80;;;;;;;;;;5038611;28;20052;-76
2022/03/23 03:09:05;;;;;;;66.13;19.27;;;;;;;;;;5055763;28;20043;-75
2022/03/23 03:11:31;;;;;;;66.90;18.52;;;;;;;;;;5038131;28;20128;-76
2022/03/23 03:13:57;;;;;;;51.28;18.17;;;;;;;;;;5055721;28;20056;-76
2022/03/23 03:16:22;;;;;;;49.47;17.50;;;;;;;;;;5055633;28;20033;-76
2022/03/23 03:18:48;;;;;;;53.35;17.38;;;;;;;;;;5055598;28;20029;-76
2022/03/23 03:21:13;;;;;;;58.65;18.00;;;;;;;;;;5056116;28;20025;-76
2022/03/23 03:23:43;;;;;;;46.22;17.00;;;;;;;;;;5021585;28;20101;-76
2022/03/23 03:26:09;;;;;;;46.70;17.92;;;;;;;;;;5049610;28;20037;-79
2022/03/23 03:28:36;;;;;;;52.22;19.52;;;;;;;;;;5045265;28;20108;-75
2022/03/23 03:31:06;;;;;;;54.67;19.23;;;;;;;;;;5020998;28;20451;-76
2022/03/23 03:33:31;;;;;;;55.63;18.23;;;;;;;;;;5055342;28;20029;-77
2022/03/23 03:35:57;;;;;;;51.05;16.65;;;;;;;;;;5055202;28;20032;-76
2022/03/23 03:38:22;;;;;;;45.75;15.30;;;;;;;;;;5055146;28;20025;-77
2022/03/23 03:40:48;;;;;;;59.45;18.13;;;;;;;;;;5055180;28;20036;-76
2022/03/23 03:43:13;;;;;;;85.03;21.13;;;;;;;;;;5055369;28;20660;-75
2022/03/23 03:45:40;;;;;;;64.13;17.85;;;;;;;;;;5037486;28;20028;-77
2022/03/23 03:48:06;;;;;;;52.13;16.50;;;;;;;;;;5064429;28;20102;-76
2022/03/23 03:50:31;;;;;;;47.65;16.15;;;;;;;;;;5055218;28;20068;-76
2022/03/23 03:52:57;;;;;;;52.42;16.52;;;;;;;;;;5054265;28;20021;-76
2022/03/23 03:55:22;;;;;;;50.28;15.70;;;;;;;;;;5037118;28;20021;-77
2022/03/23 03:57:48;;;;;;;48.92;13.13;;;;;;;;;;5054844;28;20111;-75
2022/03/23 04:00:15;;;;;;;38.53;14.50;;;;;;;;;;5054625;28;20389;-76
2022/03/23 04:02:40;;;;;;;40.72;15.55;;;;;;;;;;5054621;28;20446;-76
2022/03/23 04:05:06;;;;;;;46.90;16.50;;;;;;;;;;5054516;28;20056;-76
2022/03/23 04:07:33;;;;;;;44.13;17.25;;;;;;;;;;5055283;28;20031;-76
2022/03/23 04:10:00;;;;;;;50.85;16.83;;;;;;;;;;5064841;28;20029;-76
2022/03/23 04:12:25;;;;;;;51.15;17.73;;;;;;;;;;5036875;28;20113;-76
2022/03/23 04:14:51;;;;;;;51.88;16.08;;;;;;;;;;5054347;28;20060;-76
2022/03/23 04:17:16;;;;;;;54.45;17.48;;;;;;;;;;5054522;28;20029;-76
2022/03/23 04:19:42;;;;;;;53.17;17.48;;;;;;;;;;5036877;28;20090;-76
2022/03/23 04:22:08;;;;;;;51.00;17.67;;;;;;;;;;5054527;28;20494;-76
2022/03/23 04:24:33;;;;;;;52.03;17.48;;;;;;;;;;5054300;28;20374;-76
2022/03/23 04:26:59;;;;;;;47.55;17.90;;;;;;;;;;5036912;28;20029;-76
2022/03/23 04:29:26;;;;;;;38.05;15.07;;;;;;;;;;5061173;28;20048;-77
2022/03/23 04:31:52;;;;;;;46.20;15.18;;;;;;;;;;5057727;28;20025;-76
2022/03/23 04:34:18;;;;;;;39.47;14.45;;;;;;;;;;5054346;28;20021;-76
2022/03/23 04:36:43;;;;;;;40.22;13.23;;;;;;;;;;5054285;28;20082;-75
2022/03/23 04:39:09;;;;;;;35.15;13.25;;;;;;;;;;5054356;28;20033;-77
2022/03/23 04:41:34;;;;;;;34.03;13.38;;;;;;;;;;5054179;28;20053;-76
2022/03/23 04:43:59;;;;;;;31.90;12.85;;;;;;;;;;5054203;28;20037;-77
2022/03/23 04:46:25;;;;;;;41.20;13.38;;;;;;;;;;5054160;28;20359;-76
2022/03/23 04:48:50;;;;;;;31.27;12.52;;;;;;;;;;5054437;28;20104;-77
2022/03/23 04:51:16;;;;;;;34.10;12.02;;;;;;;;;;5065430;28;20029;-76
2022/03/23 04:53:41;;;;;;;30.45;12.15;;;;;;;;;;5053955;28;20025;-75
2022/03/23 04:56:07;;;;;;;29.60;12.00;;;;;;;;;;5054001;28;20455;-76
2022/03/23 04:58:34;;;;;;;33.80;12.88;;;;;;;;;;5036228;28;20366;-76
2022/03/23 05:01:00;;;;;;;53.58;17.05;;;;;;;;;;5036593;28;20044;-76
2022/03/23 05:03:26;;;;;;;61.35;19.17;;;;;;;;;;5055906;28;20067;-76
2022/03/23 05:05:52;;;;;;;59.30;18.77;;;;;;;;;;5057885;28;20074;-76
2022/03/23 05:08:18;;;;;;;60.42;19.13;;;;;;;;;;5057867;28;20052;-76
2022/03/23 05:10:43;;;;;;;72.78;20.95;;;;;;;;;;5065159;28;20032;-76
2022/03/23 05:13:09;;;;;;;70.93;22.60;;;;;;;;;;5061177;28;20025;-76
2022/03/23 05:15:35;;;;;;;66.45;21.17;;;;;;;;;;5040159;28;20029;-76
2022/03/23 05:18:00;;;;;;;62.08;21.55;;;;;;;;;;5057825;28;20136;-76
2022/03/23 05:20:26;;;;;;;70.22;23.50;;;;;;;;;;5039881;28;20466;-76
2022/03/23 05:22:53;;;;;;;79.97;23.02;;;;;;;;;;5057765;28;20025;-75
2022/03/23 05:25:19;;;;;;;73.93;25.00;;;;;;;;;;5059606;28;20028;-77
2022/03/23 05:27:45;;;;;;;69.82;25.88;;;;;;;;;;5037994;28;20055;-75
2022/03/23 05:30:11;;;;;;;80.32;27.92;;;;;;;;;;5038542;28;20037;-75
2022/03/23 05:32:37;;;;;;;78.90;26.98;;;;;;;;;;5062779;28;20029;-75
2022/03/23 05:35:02;;;;;;;87.43;28.48;;;;;;;;;;5038804;28;20040;-75
2022/03/23 05:37:28;;;;;;;87.18;29.08;;;;;;;;;;5022547;28;20064;-75
2022/03/23 05:39:54;;;;;;;93.43;29.27;;;;;;;;;;5056961;28;20033;-77
2022/03/23 05:42:19;;;;;;;80.88;28.90;;;;;;;;;;5021401;28;20123;-78
2022/03/23 05:44:45;;;;;;;83.72;28.63;;;;;;;;;;5039085;28;20060;-76
2022/03/23 05:47:10;;;;;;;95.97;30.38;;;;;;;;;;5042436;28;20028;-78
2022/03/23 05:49:36;;;;;;;87.90;30.20;;;;;;;;;;5062090;28;20044;-78
2022/03/23 05:52:02;;;;;;;108.50;32.97;;;;;;;;;;5033153;28;20052;-79
2022/03/23 05:54:27;;;;;;;114.45;35.13;;;;;;;;;;5046960;28;20035;-77
2022/03/23 05:56:53;;;;;;;127.82;40.83;;;;;;;;;;5059979;28;20080;-77
2022/03/23 05:59:18;;;;;;;131.70;44.85;;;;;;;;;;5060664;28;20059;-78
2022/03/23 06:01:44;;;;;;;117.13;38.30;;;;;;;;;;5064857;28;20029;-76
2022/03/23 06:04:10;;;;;;;106.78;33.45;;;;;;;;;;5032393;28;20028;-75
2022/03/23 06:06:36;;;;;;;111.20;35.35;;;;;;;;;;5037327;28;20428;-77
2022/03/23 06:09:01;;;;;;;103.97;35.53;;;;;;;;;;5069713;28;20117;-77
2022/03/23 06:11:30;;;;;;;105.40;35.78;;;;;;;;;;5097640;28;20038;-77
2022/03/23 06:13:57;;;;;;;138.10;40.03;;;;;;;;;;5097003;28;20036;-77
2022/03/23 06:16:22;;;;;;;103.13;36.88;;;;;;;;;;5074197;28;20029;-76
2022/03/23 06:18:48;;;;;;;120.88;36.15;;;;;;;;;;5072757;28;20035;-77
2022/03/23 06:21:15;;;;;;;109.55;33.60;;;;;;;;;;5081926;28;20028;-78
2022/03/23 06:23:40;;;;;;;84.97;26.90;;;;;;;;;;5088191;28;20127;-80
2022/03/23 06:26:06;;;;;;;75.18;24.98;;;;;;;;;;5044815;28;20119;-75
2022/03/23 06:28:32;;;;;;;65.10;23.90;;;;;;;;;;5073467;28;20028;-78
2022/03/23 06:30:58;;;;;;;77.45;24.48;;;;;;;;;;5072853;28;20117;-77
2022/03/23 06:33:23;;;;;;;86.15;26.75;;;;;;;;;;5063731;28;20973;-77
2022/03/23 06:35:49;;;;;;;69.00;25.33;;;;;;;;;;5088343;28;20106;-76
2022/03/23 06:38:17;;;;;;;75.18;24.08;;;;;;;;;;5096827;28;20055;-77
2022/03/23 06:40:43;;;;;;;68.63;24.08;;;;;;;;;;5090293;28;20029;-79
2022/03/23 06:43:09;;;;;;;67.22;23.90;;;;;;;;;;5080836;28;20028;-79
2022/03/23 06:45:40;;;;;;;59.70;23.05;;;;;;;;;;5077094;28;20040;-78
2022/03/23 06:48:07;;;;;;;59.22;23.48;;;;;;;;;;5065530;28;20032;-82
2022/03/23 06:50:33;;;;;;;66.53;24.05;;;;;;;;;;5074650;28;20054;-77
2022/03/23 06:52:59;;;;;;;64.07;24.75;;;;;;;;;;5086987;28;20032;-78
2022/03/23 06:55:25;;;;;;;61.70;25.33;;;;;;;;;;5089214;28;20084;-79
2022/03/23 06:57:50;;;;;;;64.97;26.00;;;;;;;;;;5064459;28;20032;-77
2022/03/23 07:00:16;;;;;;;63.38;27.02;;;;;;;;;;5085817;28;20028;-79
2022/03/23 07:02:48;;;;;;;64.88;24.67;;;;;;;;;;5079254;28;20020;-77
2022/03/23 07:05:15;;;;;;;64.38;21.38;;;;;;;;;;5057757;28;20037;-78
2022/03/23 07:10:34;;;;;;;43.05;20.10;;;;;;;;;;5037571;28;20039;-76
2022/03/23 07:13:00;;;;;;;52.55;20.42;;;;;;;;;;5066319;28;20075;-77
2022/03/23 07:15:25;;;;;;;40.50;19.17;;;;;;;;;;5075579;28;20040;-76
2022/03/23 07:17:51;;;;;;;46.00;18.45;;;;;;;;;;5044432;28;20033;-77
2022/03/23 07:20:17;;;;;;;38.45;16.63;;;;;;;;;;5071465;28;20517;-78
2022/03/23 07:22:43;;;;;;;42.38;17.38;;;;;;;;;;5048148;28;20497;-80
2022/03/23 07:25:09;;;;;;;38.67;17.80;;;;;;;;;;5068782;28;20067;-76
2022/03/23 07:27:34;;;;;;;40.08;18.60;;;;;;;;;;5029806;28;20033;-79
2022/03/23 07:30:00;;;;;;;47.30;21.60;;;;;;;;;;5064200;28;20040;-78
2022/03/23 07:32:26;;;;;;;41.47;18.10;;;;;;;;;;5070477;28;20389;-78
2022/03/23 07:34:51;;;;;;;35.95;16.63;;;;;;;;;;5078362;28;20024;-77
2022/03/23 07:37:17;;;;;;;39.08;16.35;;;;;;;;;;5066891;28;20128;-77
2022/03/23 07:39:43;;;;;;;43.28;17.17;;;;;;;;;;5048641;28;20024;-78
2022/03/23 07:42:08;;;;;;;55.70;18.10;;;;;;;;;;5056321;28;20029;-82
2022/03/23 07:44:34;;;;;;;46.78;19.90;;;;;;;;;;5047455;28;20028;-86
2022/03/23 07:47:10;;;;;;;47.60;18.67;;;;;;;;;;5047484;28;20460;-85
2022/03/23 07:49:44;;;;;;;63.63;20.40;;;;;;;;;;5051846;28;20033;-82
2022/03/23 07:52:10;;;;;;;37.90;15.02;;;;;;;;;;5039868;28;20033;-77
2022/03/23 07:54:36;;;;;;;32.28;15.55;;;;;;;;;;5062864;28;20486;-80
2022/03/23 07:57:02;;;;;;;32.75;15.50;;;;;;;;;;5059686;28;20083;-79
2022/03/23 07:59:28;;;;;;;30.38;15.07;;;;;;;;;;5057715;28;20112;-78
2022/03/23 08:01:53;;;;;;;29.02;15.65;;;;;;;;;;5046958;28;20166;-78
2022/03/23 08:04:19;;;;;;;35.60;15.02;;;;;;;;;;5057333;28;20033;-78
2022/03/23 08:06:44;;;;;;;39.60;14.52;;;;;;;;;;5055442;28;20434;-78
2022/03/23 08:09:10;;;;;;;25.73;12.52;;;;;;;;;;5058933;28;20043;-79
2022/03/23 08:11:36;;;;;;;30.27;14.90;;;;;;;;;;5065349;28;20041;-77
2022/03/23 08:14:01;;;;;;;32.55;15.10;;;;;;;;;;5069518;28;20112;-81
2022/03/23 08:16:27;;;;;;;30.02;14.00;;;;;;;;;;5056292;28;20060;-78
2022/03/23 08:18:52;;;;;;;25.98;12.63;;;;;;;;;;5031307;28;20105;-75
2022/03/23 08:21:20;;;;;;;30.58;13.32;;;;;;;;;;5053072;28;20032;-78
2022/03/23 08:23:45;;;;;;;29.08;12.32;;;;;;;;;;5042592;28;20470;-76
2022/03/23 08:26:14;;;;;;;27.15;12.13;;;;;;;;;;5067604;28;20044;-79
2022/03/23 08:28:42;;;;;;;25.15;11.57;;;;;;;;;;5068924;28;20097;-79
2022/03/23 08:31:09;;;;;;;27.92;11.50;;;;;;;;;;5059028;28;20021;-77
2022/03/23 08:33:40;;;;;;;25.00;10.20;;;;;;;;;;5044967;28;20348;-77
2022/03/23 08:36:07;;;;;;;23.45;8.80;;;;;;;;;;5057404;28;20116;-78
2022/03/23 08:38:33;;;;;;;20.38;8.02;;;;;;;;;;5046198;28;20049;-78
2022/03/23 08:40:58;;;;;;;18.27;6.70;;;;;;;;;;5034154;28;20029;-76
2022/03/23 08:43:24;;;;;;;16.05;7.05;;;;;;;;;;5061678;28;20059;-79
2022/03/23 08:45:50;;;;;;;12.95;5.88;;;;;;;;;;5055523;28;20025;-77
2022/03/23 08:48:18;;;;;;;18.58;6.47;;;;;;;;;;5066518;28;20457;-77
2022/03/23 08:50:45;;;;;;;20.75;8.60;;;;;;;;;;5048699;28;20036;-78
2022/03/23 08:53:10;;;;;;;18.52;8.63;;;;;;;;;;5071201;28;20055;-78
2022/03/23 08:55:36;;;;;;;20.65;8.35;;;;;;;;;;5063027;28;20048;-76
2022/03/23 08:58:01;;;;;;;23.77;8.40;;;;;;;;;;5038815;28;20094;-78
2022/03/23 09:00:27;;;;;;;20.98;8.18;;;;;;;;;;5058083;28;20632;-80
2022/03/23 09:02:52;;;;;;;20.55;7.80;;;;;;;;;;5067458;28;20032;-80
2022/03/23 09:05:19;;;;;;;23.35;8.15;;;;;;;;;;5063775;28;20652;-77
2022/03/23 09:07:45;;;;;;;32.40;13.15;;;;;;;;;;5060349;28;20036;-80
2022/03/23 09:10:11;;;;;;;38.63;14.73;;;;;;;;;;5057949;28;20036;-78
2022/03/23 09:12:37;;;;;;;25.50;9.00;;;;;;;;;;5058904;28;20033;-79
2022/03/23 09:15:04;;;;;;;20.45;7.50;;;;;;;;;;5048958;28;20062;-78
2022/03/23 09:17:30;;;;;;;22.90;7.90;;;;;;;;;;5027520;28;20039;-79
2022/03/23 09:19:56;;;;;;;25.33;7.80;;;;;;;;;;5070671;28;20025;-79
2022/03/23 09:22:22;;;;;;;17.88;7.72;;;;;;;;;;5050170;28;20427;-80
2022/03/23 09:24:48;;;;;;;22.85;9.57;;;;;;;;;;5058159;28;20040;-79
2022/03/23 09:27:14;;;;;;;30.90;11.40;;;;;;;;;;5056812;28;20028;-77
2022/03/23 09:29:40;;;;;;;25.25;9.68;;;;;;;;;;5058988;28;20052;-79
2022/03/23 09:32:09;;;;;;;24.83;8.85;;;;;;;;;;5061879;28;20207;-77
2022/03/23 09:34:35;;;;;;;27.30;7.97;;;;;;;;;;5044268;28;20036;-75
2022/03/23 09:39:46;;;;;;;17.80;7.32;;;;;;;;;;5043436;28;20043;-76
2022/03/23 09:42:12;;;;;;;21.92;7.03;;;;;;;;;;5058387;28;20029;-82
2022/03/23 09:44:38;;;;;;;21.30;7.50;;;;;;;;;;5044205;28;20193;-78
2022/03/23 09:47:10;;;;;;;21.67;6.90;;;;;;;;;;5042344;28;20127;-80
2022/03/23 09:49:36;;;;;;;21.15;7.40;;;;;;;;;;5044993;28;20036;-81
2022/03/23 09:52:02;;;;;;;23.35;7.80;;;;;;;;;;5031044;28;20043;-79
2022/03/23 09:54:27;;;;;;;29.40;8.35;;;;;;;;;;5061505;28;20032;-81
2022/03/23 09:56:52;;;;;;;24.45;6.82;;;;;;;;;;5021868;28;20029;-83
2022/03/23 09:59:18;;;;;;;19.23;6.45;;;;;;;;;;5045674;28;20387;-78
2022/03/23 10:01:44;;;;;;;16.38;6.38;;;;;;;;;;5044898;28;20025;-79
2022/03/23 10:04:34;;;;;;;22.27;6.40;;;;;;;;;;5060867;28;20041;-81
2022/03/23 10:07:20;;;;;;;18.17;5.30;;;;;;;;;;5061286;28;20549;-79
2022/03/23 10:10:23;;;;;;;20.45;7.43;;;;;;;;;;5046727;28;20056;-80
2022/03/23 10:13:17;;;;;;;17.60;5.78;;;;;;;;;;5068407;28;20037;-79
2022/03/23 10:16:23;;;;;;;25.15;7.20;;;;;;;;;;5062645;28;20166;-76
2022/03/23 10:18:57;;;;;;;21.10;7.97;;;;;;;;;;5059188;28;20028;-78
2022/03/23 10:21:24;;;;;;;27.55;9.20;;;;;;;;;;5046502;28;20028;-74
2022/03/23 10:24:02;;;;;;;28.02;12.20;;;;;;;;;;5064576;28;20765;-75
2022/03/23 10:26:28;;;;;;;34.05;11.40;;;;;;;;;;5072635;28;20101;-76
2022/03/23 10:28:54;;;;;;;27.38;9.55;;;;;;;;;;5066498;28;20040;-77
2022/03/23 10:31:22;;;;;;;29.85;9.10;;;;;;;;;;5059209;28;20039;-77
2022/03/23 10:34:07;;;;;;;25.88;9.38;;;;;;;;;;5062127;28;20427;-78
2022/03/23 10:36:33;;;;;;;33.85;13.68;;;;;;;;;;5059340;28;20024;-77
2022/03/23 10:38:59;;;;;;;28.60;11.55;;;;;;;;;;5049627;28;20035;-80
2022/03/23 10:41:25;;;;;;;26.80;9.55;;;;;;;;;;5050030;28;20032;-79
2022/03/23 10:43:51;;;;;;;28.88;9.40;;;;;;;;;;5044746;28;20437;-79
2022/03/23 10:46:17;;;;;;;24.02;9.20;;;;;;;;;;5040359;28;20057;-79
2022/03/23 10:48:50;;;;;;;29.83;10.88;;;;;;;;;;5041767;28;20055;-78
2022/03/23 10:51:38;;;;;;;31.92;11.57;;;;;;;;;;5054739;28;20383;-84
2022/03/23 10:54:20;;;;;;;35.10;15.18;;;;;;;;;;5062605;28;20033;-86
2022/03/23 10:56:55;;;;;;;45.45;15.73;;;;;;;;;;5039285;28;20044;-85
2022/03/23 10:59:26;;;;;;;50.53;22.42;;;;;;;;;;5027040;28;20061;-81
2022/03/23 11:02:04;;;;;;;44.83;18.40;;;;;;;;;;5052572;28;20029;-86
2022/03/23 11:04:49;;;;;;;46.95;17.85;;;;;;;;;;5060632;28;20456;-83
2022/03/23 11:07:35;;;;;;;49.58;19.52;;;;;;;;;;5064917;28;20343;-82
2022/03/23 11:15:49;;;;;;;31.30;10.55;;;;;;;;;;5051858;28;20035;-80
2022/03/23 11:18:17;;;;;;;46.40;14.93;;;;;;;;;;5059243;28;20342;-80
2022/03/23 11:20:53;;;;;;;37.13;15.10;;;;;;;;;;5056489;28;20036;-80
2022/03/23 11:23:19;;;;;;;29.88;12.73;;;;;;;;;;5053528;28;20041;-79
2022/03/23 11:25:51;;;;;;;24.73;8.80;;;;;;;;;;5083752;28;20136;-79
2022/03/23 11:28:17;;;;;;;22.27;8.02;;;;;;;;;;5084146;28;20109;-80
2022/03/23 11:30:44;;;;;;;26.90;7.97;;;;;;;;;;5093383;28;20029;-82
2022/03/23 11:33:10;;;;;;;30.25;8.80;;;;;;;;;;5080639;28;20027;-81
2022/03/23 11:35:38;;;;;;;34.13;10.32;;;;;;;;;;5035027;28;20410;-81
2022/03/23 11:38:06;;;;;;;29.00;10.68;;;;;;;;;;5053740;28;20040;-80
2022/03/23 11:40:31;;;;;;;20.58;8.48;;;;;;;;;;5035741;28;20132;-81
2022/03/23 11:42:57;;;;;;;25.95;9.25;;;;;;;;;;5057951;28;20119;-79
2022/03/23 11:45:42;;;;;;;24.48;9.60;;;;;;;;;;5069234;28;20037;-79
2022/03/23 11:48:15;;;;;;;31.00;8.73;;;;;;;;;;5071851;28;20036;-81
2022/03/23 11:51:03;;;;;;;27.98;7.88;;;;;;;;;;5078060;28;20074;-80
2022/03/23 11:53:40;;;;;;;23.77;8.35;;;;;;;;;;5071500;28;20454;-81
2022/03/23 11:56:06;;;;;;;29.98;11.40;;;;;;;;;;5072223;28;20086;-84
2022/03/23 11:59:18;;;;;;;48.00;17.60;;;;;;;;;;5073977;28;20040;-84
2022/03/23 12:02:04;;;;;;;29.70;8.93;;;;;;;;;;4994727;28;20097;-85
2022/03/23 12:04:34;;;;;;;30.45;10.70;;;;;;;;;;5076155;28;20396;-85
2022/03/23 12:07:07;;;;;;;29.83;8.27;;;;;;;;;;5024853;28;20054;-85
2022/03/23 12:09:34;;;;;;;24.38;7.75;;;;;;;;;;5058378;28;20035;-81
2022/03/23 12:12:03;;;;;;;15.32;5.90;;;;;;;;;;5060098;28;20430;-80
2022/03/23 12:14:34;;;;;;;21.15;6.85;;;;;;;;;;5056406;28;20063;-80
2022/03/23 12:17:01;;;;;;;;;;;;;;;;;;5075856;28;20060;-81
2022/03/23 12:19:28;;;;;;;18.23;6.28;;;;;;;;;;5057600;28;19912;-82
2022/03/23 12:22:05;;;;;;;33.88;9.48;;;;;;;;;;5057340;28;20028;-80
2022/03/23 12:25:08;;;;;;;30.52;8.70;;;;;;;;;;5074287;28;20074;-80
2022/03/23 12:27:45;;;;;;;22.42;5.88;;;;;;;;;;5074510;28;20078;-80
2022/03/23 12:30:29;;;;;;;22.73;7.28;;;;;;;;;;5081528;28;20555;-79
2022/03/23 12:32:58;;;;;;;18.98;5.95;;;;;;;;;;5047186;28;20119;-80
2022/03/23 12:35:31;;;;;;;22.15;6.03;;;;;;;;;;5016200;28;20079;-79
2022/03/23 12:37:57;;;;;;;17.88;6.40;;;;;;;;;;5053967;28;20044;-80
2022/03/23 12:40:23;;;;;;;15.60;5.13;;;;;;;;;;5052509;28;20358;-81
2022/03/23 12:42:48;;;;;;;19.98;7.63;;;;;;;;;;5052547;28;20136;-78
2022/03/23 12:45:22;;;;;;;22.40;7.82;;;;;;;;;;5035725;28;20028;-79
2022/03/23 12:47:58;;;;;;;34.38;8.45;;;;;;;;;;5052250;28;20029;-80
2022/03/23 12:59:21;;;;;;;34.15;13.13;;;;;;;;;;5037599;28;20080;-80
2022/03/23 13:01:47;;;;;;;30.02;10.60;;;;;;;;;;5004764;28;20355;-80
2022/03/23 13:04:44;;;;;;;18.42;5.70;;;;;;;;;;5036441;28;20112;-82
2022/03/23 13:07:28;;;;;;;21.50;6.00;;;;;;;;;;5054135;28;20025;-83
2022/03/23 13:10:13;;;;;;;15.88;5.10;;;;;;;;;;5061747;28;20048;-83
2022/03/23 13:12:38;;;;;;;19.77;5.80;;;;;;;;;;5052468;28;20024;-79
2022/03/23 13:15:15;;;;;;;26.63;7.47;;;;;;;;;;5053242;28;20359;-80
2022/03/23 13:17:41;;;;;;;23.10;7.47;;;;;;;;;;5052354;28;20040;-79
2022/03/23 13:20:08;;;;;;;23.23;6.75;;;;;;;;;;5053852;28;20029;-80
2022/03/23 13:22:35;;;;;;;17.73;5.78;;;;;;;;;;5052818;28;20021;-80
2022/03/23 13:25:05;;;;;;;22.88;6.03;;;;;;;;;;5070526;28;20036;-79
2022/03/23 13:27:31;;;;;;;33.00;6.47;;;;;;;;;;5028075;28;20045;-81
2022/03/23 13:30:01;;;;;;;21.58;5.40;;;;;;;;;;5048584;28;20037;-83
2022/03/23 13:32:33;;;;;;;21.13;6.07;;;;;;;;;;5059648;28;20025;-81
2022/03/23 13:34:59;;;;;;;18.63;6.18;;;;;;;;;;5058126;28;20053;-82
2022/03/23 13:37:25;;;;;;;24.98;6.47;;;;;;;;;;5071689;28;20519;-83
2022/03/23 13:39:50;;;;;;;22.83;6.03;;;;;;;;;;5058783;28;20028;-83
2022/03/23 13:45:09;;;;;;;21.52;5.72;;;;;;;;;;5058823;28;20060;-81
2022/03/23 13:47:36;;;;;;;27.63;8.77;;;;;;;;;;5067078;28;20029;-81
2022/03/23 13:50:04;;;;;;;24.38;6.65;;;;;;;;;;5044395;28;20370;-81
2022/03/23 13:52:30;;;;;;;16.73;5.97;;;;;;;;;;5059014;28;20036;-81
2022/03/23 13:54:56;;;;;;;28.65;5.85;;;;;;;;;;5075648;28;20075;-84
2022/03/23 13:57:22;;;;;;;18.00;5.47;;;;;;;;;;5064273;28;20033;-81
2022/03/23 13:59:48;;;;;;;20.92;6.45;;;;;;;;;;5063846;28;20038;-81
2022/03/23 14:02:16;;;;;;;22.83;7.18;;;;;;;;;;5057893;28;20379;-82
2022/03/23 14:04:42;;;;;;;22.70;7.95;;;;;;;;;;5056374;28;20043;-81
2022/03/23 14:07:08;;;;;;;16.77;5.57;;;;;;;;;;5026794;28;20025;-79
2022/03/23 14:09:37;;;;;;;26.25;6.72;;;;;;;;;;5057260;28;20115;-80
2022/03/23 14:12:05;;;;;;;26.58;6.22;;;;;;;;;;5023211;28;20025;-80
2022/03/23 14:14:32;;;;;;;26.48;6.32;;;;;;;;;;5039814;28;20466;-79
2022/03/23 14:17:25;;;;;;;19.58;6.15;;;;;;;;;;5022950;28;20025;-80
2022/03/23 14:19:52;;;;;;;19.27;5.35;;;;;;;;;;5054093;28;20462;-80
2022/03/23 14:22:27;;;;;;;16.55;6.07;;;;;;;;;;5022545;28;20047;-80
2022/03/23 14:24:58;;;;;;;25.27;8.73;;;;;;;;;;5039471;28;20132;-80
2022/03/23 14:27:36;;;;;;;24.67;7.22;;;;;;;;;;5046528;28;20016;-81
2022/03/23 14:32:42;;;;;;;35.10;8.40;;;;;;;;;;5056624;28;20075;-81
2022/03/23 14:35:16;;;;;;;25.60;7.13;;;;;;;;;;5023227;28;20029;-81
2022/03/23 14:37:50;;;;;;;28.05;6.57;;;;;;;;;;5023246;28;20033;-81
2022/03/23 14:40:31;;;;;;;34.97;6.30;;;;;;;;;;5023433;28;20401;-80
2022/03/23 14:43:01;;;;;;;29.65;6.78;;;;;;;;;;5056370;28;20408;-79
2022/03/23 14:45:34;;;;;;;21.52;6.85;;;;;;;;;;5022772;28;20092;-79
2022/03/23 14:48:01;;;;;;;21.80;5.88;;;;;;;;;;5062848;28;20428;-79
2022/03/23 14:50:27;;;;;;;20.05;8.40;;;;;;;;;;5022510;28;20033;-76
2022/03/23 14:52:53;;;;;;;18.58;5.57;;;;;;;;;;5056150;28;20091;-77
2022/03/23 14:55:21;;;;;;;22.50;6.15;;;;;;;;;;5056010;28;20132;-76
2022/03/23 14:57:47;;;;;;;25.80;9.68;;;;;;;;;;5021996;28;20028;-76
2022/03/23 15:00:14;;;;;;;25.83;6.45;;;;;;;;;;5056028;28;20422;-77
2022/03/23 15:02:39;;;;;;;20.85;6.45;;;;;;;;;;5055428;28;20051;-79